Serge-Frolow Ile Tromelin, Reunion
Current Conditions -  °F | °C
As of 12:30 AM on Tuesday 23 Dec 2014 (Local Time) from FMEE Reporting Station
Broken Clouds Broken Clouds  
Wind Chill: 81°   Ceiling: 8600
Heat Index: 85°   Visibility: 6mi
Dew Point: 72°   Wind: 5mph
Humidity: 74%   Direction: 200°SSW
Pressure: 29.88"   Gusts: NA
Location:  15.88°S, 54.52°E
Report Text: FMEE 222030Z AUTO 20004KT 9999 BKN086/// ///TCU 27/22 Q1012
Loading
Personal Weather Stations






























Interactive Weather Map New forecast layout! Learn more

10-Day Weather Forecast

Advertisements
Track Severe Weather on mobile